createdAt,value
2023-05-15T00:00:29.813Z,0.00
2023-05-15T00:01:29.799Z,0.00
2023-05-15T00:02:29.844Z,0.00
2023-05-15T00:03:29.899Z,0.00
2023-05-15T00:04:29.765Z,0.00
2023-05-15T00:05:29.704Z,0.00
2023-05-15T00:06:29.682Z,0.00
2023-05-15T00:07:29.653Z,0.00
2023-05-15T00:08:29.626Z,0.00
2023-05-15T00:09:29.604Z,0.00
2023-05-15T00:10:29.586Z,0.00
2023-05-15T00:11:29.574Z,0.00
2023-05-15T00:12:29.573Z,0.00
2023-05-15T00:13:29.511Z,0.00
2023-05-15T00:14:29.499Z,0.00
2023-05-15T00:15:29.484Z,0.00
2023-05-15T00:16:29.498Z,0.00
2023-05-15T00:17:29.465Z,0.00
2023-05-15T00:18:29.415Z,0.00
2023-05-15T00:19:29.383Z,0.00
2023-05-15T00:20:29.346Z,0.00
2023-05-15T00:21:29.325Z,0.00
2023-05-15T00:22:29.302Z,0.00
2023-05-15T00:23:29.276Z,0.00
2023-05-15T00:24:29.248Z,0.00
2023-05-15T00:25:29.237Z,0.00
2023-05-15T00:26:29.228Z,0.00
2023-05-15T00:27:29.181Z,0.00
2023-05-15T00:28:29.160Z,0.00
2023-05-15T00:29:29.140Z,0.00
2023-05-15T00:30:29.115Z,0.00
2023-05-15T00:31:29.121Z,0.00
2023-05-15T00:32:29.100Z,0.00
2023-05-15T00:33:29.049Z,0.00
2023-05-15T00:34:29.019Z,0.00
2023-05-15T00:35:29.007Z,0.00
2023-05-15T00:36:28.987Z,0.00
2023-05-15T00:37:28.958Z,0.00
2023-05-15T00:38:28.944Z,0.00
2023-05-15T00:39:28.919Z,0.00
2023-05-15T00:40:28.887Z,0.00
2023-05-15T00:41:28.899Z,0.00
2023-05-15T00:42:28.841Z,0.00
2023-05-15T00:43:28.831Z,0.00
2023-05-15T00:44:28.788Z,0.00
2023-05-15T00:45:28.786Z,0.00
2023-05-15T00:46:28.791Z,0.00
2023-05-15T00:47:28.731Z,0.00
2023-05-15T00:48:28.699Z,0.00
2023-05-15T00:49:28.689Z,0.00
2023-05-15T00:50:28.651Z,0.00
2023-05-15T00:51:28.631Z,0.00
2023-05-15T00:52:28.604Z,0.00
2023-05-15T00:53:28.698Z,0.00
2023-05-15T00:54:28.561Z,0.00
2023-05-15T00:55:28.537Z,0.00
2023-05-15T00:56:28.508Z,0.00
2023-05-15T00:57:28.494Z,0.00
2023-05-15T00:58:28.467Z,0.00
2023-05-15T00:59:28.451Z,0.00
2023-05-15T01:00:28.426Z,0.00
2023-05-15T01:01:28.469Z,0.00
2023-05-15T01:02:28.458Z,0.00
2023-05-15T01:03:28.382Z,0.00
2023-05-15T01:04:28.330Z,0.00
2023-05-15T01:05:28.307Z,0.00
2023-05-15T01:06:28.272Z,0.00
2023-05-15T01:07:28.255Z,0.00
2023-05-15T01:08:28.231Z,0.00
2023-05-15T01:09:28.204Z,0.00
2023-05-15T01:10:28.195Z,0.00
2023-05-15T01:11:28.162Z,0.00
2023-05-15T01:12:28.130Z,0.00
2023-05-15T01:13:28.116Z,0.00
2023-05-15T01:14:28.085Z,0.00
2023-05-15T01:15:28.064Z,0.00
2023-05-15T01:16:28.038Z,0.00
2023-05-15T01:17:28.033Z,0.00
2023-05-15T01:18:28.095Z,0.00
2023-05-15T01:19:28.040Z,0.00
2023-05-15T01:20:27.953Z,0.00
2023-05-15T01:21:27.923Z,0.00
2023-05-15T01:22:27.898Z,0.00
2023-05-15T01:23:27.872Z,0.00
2023-05-15T01:24:27.878Z,0.00
2023-05-15T01:25:27.832Z,0.00
2023-05-15T01:26:27.809Z,0.00
2023-05-15T01:27:27.788Z,0.00
2023-05-15T01:28:27.753Z,0.00
2023-05-15T01:29:27.735Z,0.00
2023-05-15T01:30:27.712Z,0.00
2023-05-15T01:31:27.712Z,0.00
2023-05-15T01:32:27.710Z,0.00
2023-05-15T01:33:27.650Z,0.00
2023-05-15T01:34:27.617Z,0.00
2023-05-15T01:35:27.790Z,0.00
2023-05-15T01:36:27.585Z,0.00
2023-05-15T01:37:27.546Z,0.00
2023-05-15T01:38:27.532Z,0.00
2023-05-15T01:39:27.501Z,0.00
2023-05-15T01:40:27.473Z,0.00
2023-05-15T01:41:27.459Z,0.00
2023-05-15T01:42:27.427Z,0.00
2023-05-15T01:43:27.404Z,0.00
2023-05-15T01:44:27.365Z,0.00
2023-05-15T01:45:27.417Z,0.00
2023-05-15T01:46:29.720Z,0.00
2023-05-15T01:47:27.319Z,0.00
2023-05-15T01:48:27.274Z,0.00
2023-05-15T01:49:27.263Z,0.00
2023-05-15T01:50:27.227Z,0.00
2023-05-15T01:51:27.203Z,0.00
2023-05-15T01:52:27.185Z,0.00
2023-05-15T01:53:27.163Z,0.00
2023-05-15T01:54:27.137Z,0.00
2023-05-15T01:55:27.285Z,0.00
2023-05-15T01:56:27.088Z,0.00
2023-05-15T01:57:27.058Z,0.00
2023-05-15T01:58:27.039Z,0.00
2023-05-15T01:59:27.019Z,0.00
2023-05-15T02:00:26.990Z,0.00
2023-05-15T02:01:27.034Z,0.00
2023-05-15T02:02:27.046Z,0.00
2023-05-15T02:03:27.008Z,0.00
2023-05-15T02:04:26.895Z,0.00
2023-05-15T02:05:27.115Z,0.00
2023-05-15T02:06:26.856Z,0.00
2023-05-15T02:07:26.827Z,0.00
2023-05-15T02:08:26.799Z,0.00
2023-05-15T02:09:26.793Z,0.00
2023-05-15T02:10:26.764Z,0.00
2023-05-15T02:11:26.729Z,0.00
2023-05-15T02:12:26.700Z,0.00
2023-05-15T02:13:26.682Z,0.00
2023-05-15T02:14:26.662Z,0.00
2023-05-15T02:15:26.864Z,0.00
2023-05-15T02:16:26.636Z,0.00
2023-05-15T02:17:26.626Z,0.00
2023-05-15T02:18:26.621Z,0.00
2023-05-15T02:19:26.552Z,0.00
2023-05-15T02:20:26.506Z,0.00
2023-05-15T02:21:26.495Z,0.00
2023-05-15T02:22:26.470Z,0.00
2023-05-15T02:23:26.444Z,0.00
2023-05-15T02:24:26.415Z,0.00
2023-05-15T02:25:26.575Z,0.00
2023-05-15T02:26:26.376Z,0.00
2023-05-15T02:27:26.382Z,0.00
2023-05-15T02:28:26.316Z,0.00
2023-05-15T02:29:26.308Z,0.00
2023-05-15T02:30:26.281Z,0.00
2023-05-15T02:31:26.260Z,0.00
2023-05-15T02:32:26.255Z,0.00
2023-05-15T02:33:26.197Z,0.00
2023-05-15T02:34:26.173Z,0.00
2023-05-15T02:35:26.419Z,0.00
2023-05-15T02:36:26.138Z,0.00
2023-05-15T02:37:26.109Z,0.00
2023-05-15T02:38:26.079Z,0.00
2023-05-15T02:39:26.056Z,0.00
2023-05-15T02:40:26.032Z,0.00
2023-05-15T02:41:26.018Z,0.00
2023-05-15T02:42:25.976Z,0.00
2023-05-15T02:43:25.967Z,0.00
2023-05-15T02:44:25.964Z,0.00
2023-05-15T02:45:26.387Z,0.00
2023-05-15T02:46:26.125Z,0.00
2023-05-15T02:47:25.916Z,0.00
2023-05-15T02:48:25.840Z,0.00
2023-05-15T02:49:25.818Z,0.00
2023-05-15T02:50:25.797Z,0.00
2023-05-15T02:51:25.770Z,0.00
2023-05-15T02:52:25.732Z,0.00
2023-05-15T02:53:25.724Z,0.00
2023-05-15T02:54:25.689Z,0.00
2023-05-15T02:55:25.975Z,0.00
2023-05-15T02:56:25.649Z,0.00
2023-05-15T02:57:25.645Z,0.00
2023-05-15T02:58:25.593Z,0.00
2023-05-15T02:59:25.577Z,0.00
2023-05-15T03:00:25.557Z,0.00
2023-05-15T03:01:25.584Z,0.00
2023-05-15T03:02:25.571Z,0.00
2023-05-15T03:03:25.476Z,0.00
2023-05-15T03:04:25.513Z,0.00
2023-05-15T03:05:25.588Z,0.00
2023-05-15T03:06:25.400Z,0.00
2023-05-15T03:07:25.375Z,4.00
2023-05-15T03:08:25.373Z,4.00
2023-05-15T03:09:25.319Z,4.00
2023-05-15T03:10:25.304Z,4.00
2023-05-15T03:11:25.284Z,4.00
2023-05-15T03:12:25.252Z,4.00
2023-05-15T03:13:25.232Z,4.00
2023-05-15T03:14:25.208Z,8.00
2023-05-15T03:15:25.466Z,8.00
2023-05-15T03:16:25.217Z,8.00
2023-05-15T03:17:25.174Z,8.00
2023-05-15T03:18:25.122Z,16.00
2023-05-15T03:19:25.085Z,16.00
2023-05-15T03:20:25.072Z,16.00
2023-05-15T03:21:25.047Z,20.00
2023-05-15T03:22:25.027Z,24.00
2023-05-15T03:23:24.984Z,24.00
2023-05-15T03:24:24.964Z,28.00
2023-05-15T03:25:25.082Z,32.00
2023-05-15T03:26:24.920Z,36.00
2023-05-15T03:27:24.894Z,44.00
2023-05-15T03:28:24.872Z,48.00
2023-05-15T03:29:24.845Z,52.00
2023-05-15T03:30:24.820Z,60.00
2023-05-15T03:31:24.843Z,68.00
2023-05-15T03:32:24.789Z,76.00
2023-05-15T03:33:24.762Z,88.00
2023-05-15T03:34:24.737Z,96.00
2023-05-15T03:35:24.887Z,108.00
2023-05-15T03:36:24.681Z,116.00
2023-05-15T03:37:24.645Z,132.00
2023-05-15T03:38:24.636Z,144.00
2023-05-15T03:39:24.608Z,156.00
2023-05-15T03:40:24.583Z,168.00
2023-05-15T03:41:24.582Z,188.00
2023-05-15T03:42:24.535Z,204.00
2023-05-15T03:43:24.500Z,220.00
2023-05-15T03:44:24.483Z,236.00
2023-05-15T03:45:24.597Z,256.00
2023-05-15T03:46:24.524Z,272.00
2023-05-15T03:47:24.422Z,296.00
2023-05-15T03:48:24.404Z,316.00
2023-05-15T03:49:24.354Z,336.00
2023-05-15T03:50:24.343Z,360.00
2023-05-15T03:51:24.307Z,384.00
2023-05-15T03:52:24.283Z,408.00
2023-05-15T03:53:24.255Z,436.00
2023-05-15T03:54:24.256Z,460.00
2023-05-15T03:55:24.302Z,492.00
2023-05-15T03:56:24.192Z,524.00
2023-05-15T03:57:24.163Z,552.00
2023-05-15T03:58:24.148Z,584.00
2023-05-15T03:59:24.111Z,616.00
2023-05-15T04:00:24.365Z,652.00
2023-05-15T04:01:24.068Z,680.00
2023-05-15T04:02:24.106Z,716.00
2023-05-15T04:03:24.355Z,756.00
2023-05-15T04:04:23.998Z,788.00
2023-05-15T04:05:24.223Z,824.00
2023-05-15T04:06:24.082Z,864.00
2023-05-15T04:07:23.915Z,908.00
2023-05-15T04:08:23.907Z,940.00
2023-05-15T04:09:23.874Z,980.00
2023-05-15T04:10:23.997Z,1016.00
2023-05-15T04:11:23.851Z,1056.00
2023-05-15T04:12:23.805Z,1104.00
2023-05-15T04:13:23.779Z,1152.00
2023-05-15T04:14:23.763Z,1200.00
2023-05-15T04:15:23.991Z,1248.00
2023-05-15T04:16:23.733Z,1288.00
2023-05-15T04:17:23.698Z,1324.00
2023-05-15T04:18:23.666Z,1352.00
2023-05-15T04:19:23.632Z,1388.00
2023-05-15T04:20:23.618Z,1424.00
2023-05-15T04:21:23.579Z,1456.00
2023-05-15T04:22:23.568Z,1488.00
2023-05-15T04:23:23.542Z,1520.00
2023-05-15T04:24:23.520Z,1548.00
2023-05-15T04:25:23.674Z,1576.00
2023-05-15T04:26:23.482Z,1608.00
2023-05-15T04:27:23.444Z,1640.00
2023-05-15T04:28:23.418Z,1676.00
2023-05-15T04:29:23.388Z,1712.00
2023-05-15T04:30:23.380Z,1748.00
2023-05-15T04:31:23.365Z,1788.00
2023-05-15T04:32:23.334Z,1820.00
2023-05-15T04:33:23.302Z,1864.00
2023-05-15T04:34:23.281Z,1904.00
2023-05-15T04:35:23.343Z,1940.00
2023-05-15T04:36:23.225Z,1972.00
2023-05-15T04:37:23.193Z,2000.00
2023-05-15T04:38:23.179Z,2028.00
2023-05-15T04:39:23.145Z,2052.00
2023-05-15T04:40:23.129Z,2076.00
2023-05-15T04:41:23.105Z,2096.00
2023-05-15T04:42:23.081Z,2112.00
2023-05-15T04:43:23.053Z,2128.00
2023-05-15T04:44:23.033Z,2148.00
2023-05-15T04:45:23.147Z,2168.00
2023-05-15T04:46:23.030Z,2200.00
2023-05-15T04:47:23.019Z,2240.00
2023-05-15T04:48:22.932Z,2272.00
2023-05-15T04:49:22.909Z,2308.00
2023-05-15T04:50:23.043Z,2344.00
2023-05-15T04:51:22.870Z,2380.00
2023-05-15T04:52:22.835Z,2432.00
2023-05-15T04:53:22.813Z,2480.00
2023-05-15T04:54:22.797Z,2528.00
2023-05-15T04:55:22.860Z,2572.00
2023-05-15T04:56:22.736Z,2608.00
2023-05-15T04:57:22.714Z,2640.00
2023-05-15T04:58:22.696Z,2672.00
2023-05-15T04:59:22.668Z,2696.00
2023-05-15T05:00:22.651Z,2728.00
2023-05-15T05:01:22.672Z,2756.00
2023-05-15T05:02:22.735Z,2780.00
2023-05-15T05:03:22.636Z,2804.00
2023-05-15T05:04:22.555Z,2832.00
2023-05-15T05:05:22.646Z,2852.00
2023-05-15T05:06:22.506Z,2864.00
2023-05-15T05:07:22.479Z,2896.00
2023-05-15T05:08:22.460Z,2920.00
2023-05-15T05:09:22.433Z,2940.00
2023-05-15T05:10:22.411Z,2940.00
2023-05-15T05:11:23.134Z,2976.00
2023-05-15T05:12:22.372Z,3084.00
2023-05-15T05:13:22.333Z,3196.00
2023-05-15T05:14:22.316Z,3412.00
2023-05-15T05:15:22.337Z,3852.00
2023-05-15T05:16:22.308Z,5392.00
2023-05-15T05:17:22.270Z,7816.00
2023-05-15T05:18:22.259Z,8652.00
2023-05-15T05:19:22.189Z,7648.00
2023-05-15T05:20:22.176Z,5064.00
2023-05-15T05:21:22.137Z,4576.00
2023-05-15T05:22:22.130Z,6064.00
2023-05-15T05:23:22.104Z,4732.00
2023-05-15T05:24:22.092Z,3724.00
2023-05-15T05:25:22.056Z,3636.00
2023-05-15T05:26:22.090Z,3688.00
2023-05-15T05:27:22.039Z,3696.00
2023-05-15T05:28:21.988Z,3712.00
2023-05-15T05:29:21.965Z,3748.00
2023-05-15T05:30:21.964Z,3804.00
2023-05-15T05:31:21.931Z,3852.00
2023-05-15T05:32:21.920Z,3896.00
2023-05-15T05:33:21.861Z,3944.00
2023-05-15T05:34:21.848Z,3980.00
2023-05-15T05:35:21.899Z,4016.00
2023-05-15T05:36:21.802Z,4036.00
2023-05-15T05:37:21.779Z,4124.00
2023-05-15T05:38:21.764Z,4160.00
2023-05-15T05:39:21.745Z,4196.00
2023-05-15T05:40:21.709Z,4264.00
2023-05-15T05:41:21.692Z,4264.00
2023-05-15T05:42:21.673Z,4296.00
2023-05-15T05:43:21.636Z,4356.00
2023-05-15T05:44:21.623Z,4460.00
2023-05-15T05:45:21.588Z,4608.00
2023-05-15T05:46:21.604Z,4668.00
2023-05-15T05:47:21.612Z,4808.00
2023-05-15T05:48:21.528Z,4988.00
2023-05-15T05:49:21.497Z,5212.00
2023-05-15T05:50:21.502Z,5656.00
2023-05-15T05:51:21.460Z,5760.00
2023-05-15T05:52:21.436Z,6028.00
2023-05-15T05:53:21.408Z,6272.00
2023-05-15T05:54:21.397Z,6316.00
2023-05-15T05:55:21.366Z,6436.00
2023-05-15T05:56:21.345Z,6508.00
2023-05-15T05:57:21.326Z,6444.00
2023-05-15T05:58:25.541Z,6392.00
2023-05-15T05:59:21.272Z,6348.00
2023-05-15T06:00:21.255Z,6256.00
2023-05-15T06:01:21.295Z,6252.00
2023-05-15T06:02:21.261Z,6364.00
2023-05-15T06:03:21.309Z,6444.00
2023-05-15T06:04:21.216Z,6128.00
2023-05-15T06:05:21.158Z,5784.00
2023-05-15T06:06:21.134Z,5796.00
2023-05-15T06:07:21.108Z,6344.00
2023-05-15T06:08:21.106Z,7120.00
2023-05-15T06:09:21.067Z,6888.00
2023-05-15T06:10:21.046Z,6080.00
2023-05-15T06:11:21.938Z,5888.00
2023-05-15T06:12:22.953Z,5896.00
2023-05-15T06:13:20.983Z,5848.00
2023-05-15T06:14:21.346Z,5768.00
2023-05-15T06:15:20.937Z,5596.00
2023-05-15T06:16:20.941Z,5420.00
2023-05-15T06:17:20.893Z,5408.00
2023-05-15T06:18:20.885Z,5468.00
2023-05-15T06:19:20.938Z,5688.00
2023-05-15T06:20:20.844Z,5692.00
2023-05-15T06:21:20.812Z,5700.00
2023-05-15T06:22:20.799Z,5592.00
2023-05-15T06:23:22.442Z,5572.00
2023-05-15T06:24:20.757Z,5652.00
2023-05-15T06:25:20.733Z,5680.00
2023-05-15T06:26:20.713Z,5828.00
2023-05-15T06:27:20.687Z,6080.00
2023-05-15T06:28:20.675Z,6244.00
2023-05-15T06:29:20.655Z,6388.00
2023-05-15T06:30:20.650Z,6468.00
2023-05-15T06:31:20.633Z,6432.00
2023-05-15T06:32:20.708Z,6364.00
2023-05-15T06:33:20.571Z,6244.00
2023-05-15T06:34:20.559Z,6120.00
2023-05-15T06:35:20.536Z,6128.00
2023-05-15T06:36:20.524Z,6708.00
2023-05-15T06:37:20.504Z,6448.00
2023-05-15T06:38:20.487Z,6432.00
2023-05-15T06:39:20.462Z,7440.00
2023-05-15T06:40:20.447Z,7616.00
2023-05-15T06:41:20.427Z,7220.00
2023-05-15T06:42:20.407Z,6676.00
2023-05-15T06:43:20.386Z,6772.00
2023-05-15T06:44:20.372Z,6620.00
2023-05-15T06:45:20.377Z,6192.00
2023-05-15T06:46:20.383Z,5916.00
2023-05-15T06:47:20.299Z,5772.00
2023-05-15T06:48:20.298Z,5692.00
2023-05-15T06:49:20.272Z,5600.00
2023-05-15T06:50:20.256Z,5608.00
2023-05-15T06:51:20.226Z,5728.00
2023-05-15T06:52:20.218Z,5688.00
2023-05-15T06:53:20.192Z,5644.00
2023-05-15T06:54:20.175Z,5660.00
2023-05-15T06:55:20.154Z,5844.00
2023-05-15T06:56:20.151Z,6092.00
2023-05-15T06:57:20.118Z,6160.00
2023-05-15T06:58:20.105Z,6284.00
2023-05-15T06:59:20.076Z,6320.00
2023-05-15T07:00:20.091Z,6248.00
2023-05-15T07:01:20.075Z,6228.00
2023-05-15T07:02:20.037Z,6148.00
2023-05-15T07:03:20.003Z,6080.00
2023-05-15T07:04:20.010Z,6064.00
2023-05-15T07:05:19.960Z,6140.00
2023-05-15T07:06:19.950Z,6112.00
2023-05-15T07:07:19.928Z,6052.00
2023-05-15T07:08:19.922Z,6108.00
2023-05-15T07:09:19.901Z,6216.00
2023-05-15T07:10:19.881Z,6456.00
2023-05-15T07:11:19.887Z,6668.00
2023-05-15T07:12:20.684Z,6804.00
2023-05-15T07:13:19.829Z,7004.00
2023-05-15T07:14:19.841Z,7228.00
2023-05-15T07:15:19.792Z,7420.00
2023-05-15T07:16:19.765Z,7608.00
2023-05-15T07:17:19.779Z,7712.00
2023-05-15T07:18:19.888Z,7796.00
2023-05-15T07:19:19.802Z,7760.00
2023-05-15T07:20:19.694Z,7708.00
2023-05-15T07:21:19.672Z,7732.00
2023-05-15T07:22:19.669Z,7736.00
2023-05-15T07:23:19.645Z,7704.00
2023-05-15T07:24:19.623Z,7708.00
2023-05-15T07:25:19.603Z,7700.00
2023-05-15T07:26:28.586Z,7684.00
2023-05-15T07:27:19.577Z,7656.00
2023-05-15T07:28:19.563Z,7368.00
2023-05-15T07:29:19.540Z,7448.00
2023-05-15T07:30:19.523Z,7404.00
2023-05-15T07:31:19.523Z,7364.00
2023-05-15T07:32:19.512Z,7476.00
2023-05-15T07:33:19.472Z,7504.00
2023-05-15T07:34:19.481Z,7532.00
2023-05-15T07:35:19.442Z,7576.00
2023-05-15T07:36:19.420Z,7512.00
2023-05-15T07:37:19.419Z,7612.00
2023-05-15T07:38:19.436Z,7676.00
2023-05-15T07:39:19.403Z,7460.00
2023-05-15T07:40:19.353Z,7836.00
2023-05-15T07:41:19.342Z,7836.00
2023-05-15T07:42:19.324Z,7828.00
2023-05-15T07:43:19.321Z,7740.00
2023-05-15T07:44:19.299Z,7692.00
2023-05-15T07:45:19.305Z,7624.00
2023-05-15T07:46:19.334Z,7608.00
2023-05-15T07:47:19.253Z,7612.00
2023-05-15T07:48:19.240Z,7624.00
2023-05-15T07:49:19.235Z,7640.00
2023-05-15T07:50:19.245Z,7620.00
2023-05-15T07:51:19.200Z,7628.00
2023-05-15T07:52:19.174Z,7628.00
2023-05-15T07:53:19.164Z,7628.00
2023-05-15T07:54:19.140Z,7588.00
2023-05-15T07:55:19.133Z,7528.00
2023-05-15T07:56:19.135Z,7452.00
2023-05-15T07:57:19.114Z,7420.00
2023-05-15T07:58:19.090Z,7372.00
2023-05-15T07:59:19.117Z,7384.00
2023-05-15T08:00:19.064Z,7396.00
2023-05-15T08:01:19.049Z,7408.00
2023-05-15T08:02:19.100Z,7444.00
2023-05-15T08:03:19.232Z,7492.00
2023-05-15T08:04:19.044Z,7560.00
2023-05-15T08:05:18.991Z,7636.00
2023-05-15T08:06:19.206Z,7684.00
2023-05-15T08:07:18.962Z,7716.00
2023-05-15T08:08:18.940Z,7732.00
2023-05-15T08:09:18.934Z,7764.00
2023-05-15T08:10:18.911Z,7796.00
2023-05-15T08:11:18.902Z,7756.00
2023-05-15T08:12:18.881Z,7796.00
2023-05-15T08:13:18.873Z,8008.00
2023-05-15T08:14:18.907Z,8252.00
2023-05-15T08:15:18.838Z,8428.00
2023-05-15T08:16:18.864Z,8468.00
2023-05-15T08:17:18.817Z,8660.00
2023-05-15T08:18:18.797Z,8860.00
2023-05-15T08:19:18.810Z,8784.00
2023-05-15T08:20:18.774Z,8724.00
2023-05-15T08:21:18.759Z,8656.00
2023-05-15T08:22:18.946Z,8460.00
2023-05-15T08:23:18.731Z,8380.00
2023-05-15T08:24:18.720Z,8084.00
2023-05-15T08:25:18.713Z,8260.00
2023-05-15T08:26:18.678Z,8480.00
2023-05-15T08:27:18.672Z,8744.00
2023-05-15T08:28:18.667Z,9044.00
2023-05-15T08:29:18.640Z,9580.00
2023-05-15T08:30:18.624Z,10008.00
2023-05-15T08:31:18.629Z,10468.00
2023-05-15T08:32:18.598Z,10896.00
2023-05-15T08:33:18.589Z,11144.00
2023-05-15T08:34:18.563Z,11272.00
2023-05-15T08:35:18.560Z,11628.00
2023-05-15T08:36:18.614Z,11932.00
2023-05-15T08:37:18.530Z,12228.00
2023-05-15T08:38:18.699Z,12548.00
2023-05-15T08:39:18.509Z,12940.00
2023-05-15T08:40:21.372Z,13276.00
2023-05-15T08:41:25.932Z,13664.00
2023-05-15T08:42:18.452Z,14104.00
2023-05-15T08:43:18.477Z,14620.00
2023-05-15T08:44:18.425Z,15088.00
2023-05-15T08:45:18.413Z,15548.00
2023-05-15T08:46:18.425Z,16060.00
2023-05-15T08:47:18.396Z,16616.00
2023-05-15T08:48:18.424Z,17268.00
2023-05-15T08:49:18.382Z,18144.00
2023-05-15T08:50:18.356Z,18880.00
2023-05-15T08:51:18.337Z,19584.00
2023-05-15T08:52:18.318Z,20512.00
2023-05-15T08:53:18.308Z,21472.00
2023-05-15T08:54:18.293Z,22528.00
2023-05-15T08:55:18.285Z,23648.00
2023-05-15T08:56:18.274Z,24960.00
2023-05-15T08:57:18.269Z,26656.00
2023-05-15T08:58:18.253Z,28416.00
2023-05-15T08:59:18.242Z,30336.00
2023-05-15T09:00:18.214Z,32640.00
2023-05-15T09:01:18.215Z,35200.00
2023-05-15T09:02:18.209Z,38048.00
2023-05-15T09:03:18.280Z,40736.00
2023-05-15T09:04:18.154Z,43232.00
2023-05-15T09:05:18.144Z,45504.00
2023-05-15T09:06:18.126Z,47584.00
2023-05-15T09:07:18.125Z,48896.00
2023-05-15T09:08:18.105Z,50112.00
2023-05-15T09:09:18.096Z,51200.00
2023-05-15T09:10:18.086Z,52352.00
2023-05-15T09:11:18.069Z,53216.00
2023-05-15T09:12:18.055Z,53792.00
2023-05-15T09:13:18.064Z,54528.00
2023-05-15T09:14:18.601Z,55072.00
2023-05-15T09:15:18.180Z,56096.00
2023-05-15T09:16:18.039Z,56896.00
2023-05-15T09:17:17.993Z,57600.00
2023-05-15T09:18:17.969Z,58048.00
2023-05-15T09:19:18.004Z,58944.00
2023-05-15T09:20:17.953Z,59712.00
2023-05-15T09:21:17.948Z,61472.00
2023-05-15T09:22:17.917Z,62880.00
2023-05-15T09:23:17.912Z,63264.00
2023-05-15T09:24:17.899Z,64320.00
2023-05-15T09:25:17.878Z,65632.00
2023-05-15T09:26:17.911Z,66944.00
2023-05-15T09:27:17.860Z,67936.00
2023-05-15T09:28:17.844Z,68832.00
2023-05-15T09:29:18.872Z,69504.00
2023-05-15T09:30:17.859Z,70880.00
2023-05-15T09:31:17.837Z,71360.00
2023-05-15T09:32:17.830Z,72128.00
2023-05-15T09:33:17.789Z,72800.00
2023-05-15T09:34:17.757Z,73664.00
2023-05-15T09:35:17.755Z,74240.00
2023-05-15T09:36:17.759Z,75168.00
2023-05-15T09:37:17.727Z,75840.00
2023-05-15T09:38:17.737Z,76832.00
2023-05-15T09:39:17.703Z,77760.00
2023-05-15T09:40:17.685Z,79040.00
2023-05-15T09:41:17.680Z,80160.00
2023-05-15T09:42:17.660Z,80608.00
2023-05-15T09:43:17.656Z,81312.00
2023-05-15T09:44:19.358Z,81408.00
2023-05-15T09:45:17.691Z,82240.00
2023-05-15T09:46:17.675Z,82848.00
2023-05-15T09:47:17.784Z,83072.00
2023-05-15T09:48:17.645Z,83360.00
2023-05-15T09:49:17.579Z,83360.00
2023-05-15T09:50:17.635Z,83584.00
2023-05-15T09:51:17.557Z,83840.00
2023-05-15T09:52:17.550Z,84064.00
2023-05-15T09:53:21.405Z,83968.00
2023-05-15T09:54:17.529Z,83264.00
2023-05-15T09:55:17.507Z,83264.00
2023-05-15T09:56:17.490Z,83008.00
2023-05-15T09:57:17.488Z,83040.00
2023-05-15T09:58:17.486Z,83328.00
2023-05-15T09:59:17.463Z,85440.00
2023-05-15T10:00:17.536Z,84736.00
2023-05-15T10:01:17.465Z,85632.00
2023-05-15T10:02:17.418Z,83936.00
2023-05-15T10:03:17.427Z,85472.00
2023-05-15T10:04:17.394Z,85248.00
2023-05-15T10:05:17.635Z,85664.00
2023-05-15T10:06:17.403Z,86368.00
2023-05-15T10:07:17.366Z,86656.00
2023-05-15T10:08:17.358Z,86336.00
2023-05-15T10:09:17.349Z,87136.00
2023-05-15T10:10:17.351Z,88672.00
2023-05-15T10:11:17.328Z,89248.00
2023-05-15T10:12:17.312Z,89312.00
2023-05-15T10:13:17.314Z,91008.00
2023-05-15T10:14:17.400Z,92736.00
2023-05-15T10:15:17.301Z,94240.00
2023-05-15T10:16:17.289Z,92992.00
2023-05-15T10:17:17.273Z,79296.00
2023-05-15T10:18:17.252Z,97504.00
2023-05-15T10:19:17.295Z,97472.00
2023-05-15T10:20:17.258Z,99232.00
2023-05-15T10:21:17.243Z,35232.00
2023-05-15T10:22:17.220Z,20064.00
2023-05-15T10:23:17.217Z,26208.00
2023-05-15T10:24:17.199Z,22816.00
2023-05-15T10:25:17.196Z,23104.00
2023-05-15T10:26:17.194Z,25376.00
2023-05-15T10:27:17.179Z,25536.00
2023-05-15T10:28:17.168Z,21952.00
2023-05-15T10:29:17.254Z,98944.00
2023-05-15T10:30:17.154Z,102944.00
2023-05-15T10:31:17.162Z,92224.00
2023-05-15T10:32:17.128Z,22752.00
2023-05-15T10:33:17.283Z,19136.00
2023-05-15T10:34:17.109Z,14836.00
2023-05-15T10:35:17.115Z,13216.00
2023-05-15T10:36:17.524Z,11984.00
2023-05-15T10:37:17.080Z,11280.00
2023-05-15T10:38:17.069Z,10496.00
2023-05-15T10:39:17.063Z,9864.00
2023-05-15T10:40:17.080Z,9252.00
2023-05-15T10:41:18.009Z,8700.00
2023-05-15T10:42:17.039Z,8388.00
2023-05-15T10:43:17.036Z,8156.00
2023-05-15T10:44:17.003Z,8028.00
2023-05-15T10:45:17.011Z,8044.00
2023-05-15T10:46:17.046Z,8316.00
2023-05-15T10:47:17.005Z,8924.00
2023-05-15T10:48:16.970Z,9640.00
2023-05-15T10:49:16.941Z,10348.00
2023-05-15T10:50:16.931Z,11144.00
2023-05-15T10:51:16.933Z,11856.00
2023-05-15T10:52:16.906Z,12596.00
2023-05-15T10:53:16.903Z,13264.00
2023-05-15T10:54:16.873Z,13876.00
2023-05-15T10:55:16.878Z,14528.00
2023-05-15T10:56:16.917Z,15308.00
2023-05-15T10:57:16.845Z,15980.00
2023-05-15T10:58:16.829Z,16528.00
2023-05-15T10:59:16.819Z,17120.00
2023-05-15T11:00:16.794Z,17376.00
2023-05-15T11:01:16.806Z,17664.00
2023-05-15T11:02:16.930Z,18144.00
2023-05-15T11:03:16.969Z,18752.00
2023-05-15T11:04:16.767Z,19616.00
2023-05-15T11:05:16.730Z,20256.00
2023-05-15T11:06:16.712Z,20608.00
2023-05-15T11:07:16.702Z,82240.00
2023-05-15T11:08:16.693Z,19904.00
2023-05-15T11:09:16.679Z,18816.00
2023-05-15T11:10:16.673Z,19136.00
2023-05-15T11:11:16.657Z,19392.00
2023-05-15T11:12:16.639Z,20128.00
2023-05-15T11:13:16.619Z,21600.00
2023-05-15T11:14:16.626Z,23232.00
2023-05-15T11:15:16.597Z,27360.00
2023-05-15T11:16:16.605Z,50688.00
2023-05-15T11:17:16.624Z,25952.00
2023-05-15T11:18:16.632Z,24384.00
2023-05-15T11:19:16.594Z,24256.00
2023-05-15T11:20:16.541Z,24096.00
2023-05-15T11:21:16.528Z,24192.00
2023-05-15T11:22:16.529Z,25792.00
2023-05-15T11:23:16.505Z,28992.00
2023-05-15T11:24:16.497Z,35552.00
2023-05-15T11:25:16.471Z,32320.00
2023-05-15T11:26:16.481Z,74912.00
2023-05-15T11:27:16.454Z,38688.00
2023-05-15T11:28:16.453Z,95680.00
2023-05-15T11:29:16.431Z,79680.00
2023-05-15T11:30:16.430Z,95040.00
2023-05-15T11:31:16.472Z,24320.00
2023-05-15T11:32:16.407Z,17600.00
2023-05-15T11:33:16.540Z,12920.00
2023-05-15T11:34:16.422Z,10892.00
2023-05-15T11:35:16.378Z,10344.00
2023-05-15T11:36:16.386Z,10312.00
2023-05-15T11:37:16.359Z,9800.00
2023-05-15T11:38:16.360Z,9020.00
2023-05-15T11:39:16.335Z,8260.00
2023-05-15T11:40:16.327Z,7752.00
2023-05-15T11:41:16.315Z,7568.00
2023-05-15T11:42:16.305Z,7736.00
2023-05-15T11:43:16.287Z,7468.00
2023-05-15T11:44:16.287Z,6916.00
2023-05-15T11:45:16.276Z,6764.00
2023-05-15T11:46:16.419Z,6812.00
2023-05-15T11:47:16.229Z,6972.00
2023-05-15T11:48:16.286Z,7072.00
2023-05-15T11:49:16.218Z,7372.00
2023-05-15T11:50:16.217Z,7728.00
2023-05-15T11:51:16.178Z,8008.00
2023-05-15T11:52:16.170Z,8292.00
2023-05-15T11:53:16.152Z,8484.00
2023-05-15T11:54:16.143Z,8612.00
2023-05-15T11:55:16.137Z,8648.00
2023-05-15T11:56:16.115Z,8592.00
2023-05-15T11:57:16.086Z,8516.00
2023-05-15T11:58:16.077Z,8564.00
2023-05-15T11:59:16.059Z,8612.00
2023-05-15T12:00:16.056Z,8772.00
2023-05-15T12:01:16.029Z,8820.00
2023-05-15T12:02:16.017Z,8984.00
2023-05-15T12:03:16.132Z,9024.00
2023-05-15T12:04:16.058Z,8952.00
2023-05-15T12:05:15.997Z,9020.00
2023-05-15T12:06:15.973Z,9180.00
2023-05-15T12:07:15.928Z,9332.00
2023-05-15T12:08:15.917Z,9508.00
2023-05-15T12:09:15.895Z,9564.00
2023-05-15T12:10:15.916Z,9692.00
2023-05-15T12:11:15.869Z,9968.00
2023-05-15T12:12:15.851Z,10432.00
2023-05-15T12:13:15.826Z,11156.00
2023-05-15T12:14:15.813Z,11944.00
2023-05-15T12:15:15.791Z,12764.00
2023-05-15T12:16:15.801Z,13904.00
2023-05-15T12:17:15.754Z,15000.00
2023-05-15T12:18:15.738Z,16072.00
2023-05-15T12:19:15.780Z,17408.00
2023-05-15T12:20:15.716Z,18560.00